EPMO

Modlin Airport

Warsaw, Poland
METAR EPMO 151830Z 29006KT 4500 BR OVC005 04/03 Q1030
Observed Flight Rules
Feb-15 @ 18:30 UTC (37 minutes ago) Instrument Flight Rules
Wind Visibility Clouds Conditions
290° at 6 knots 4,506 meters
  • Overcast at 500' AGL
  • Mist
Temperatures Readings
Current 4°C / 39°F
Dewpoint 3°C / 37°F
Humidity 93%
Altimeter 30.41" Hg
Pressure 1029.91 hPa
Elevation 104
METAR EPMO 151830Z 29006KT 4500 BR OVC005 04/03 Q1030
Observed Flight Rules
Feb-15 @ 18:30 UTC
(37 minutes ago)
IFR
Wind Visibility
290° at 6 knots 4,506 meters
Clouds
  • Overcast at 500' AGL
Conditions
  • Mist
Temperature Dewpoint
4°C / 39°F 3°C / 37°F
Humidity Altimeter Pressure
93% 30.41" Hg 1029.91 hPa